sensor_id;sensor_type;location;lat;lon;timestamp;pressure;altitude;pressure_sealevel;temperature;humidity
43707;BME280;61348;53.392;-6.248;2024-03-08T00:00:13;100635.47;;;6.64;96.20
43707;BME280;61348;53.392;-6.248;2024-03-08T00:02:45;100634.16;;;6.61;96.55
43707;BME280;61348;53.392;-6.248;2024-03-08T00:05:14;100633.66;;;6.59;96.47
43707;BME280;61348;53.392;-6.248;2024-03-08T00:07:42;100630.41;;;6.57;96.60
43707;BME280;61348;53.392;-6.248;2024-03-08T00:10:12;100636.72;;;6.58;96.59
43707;BME280;61348;53.392;-6.248;2024-03-08T00:12:43;100635.91;;;6.57;96.59
43707;BME280;61348;53.392;-6.248;2024-03-08T00:15:12;100630.41;;;6.57;96.62
43707;BME280;61348;53.392;-6.248;2024-03-08T00:17:44;100627.66;;;6.57;96.50
43707;BME280;61348;53.392;-6.248;2024-03-08T00:20:12;100630.41;;;6.57;96.58
43707;BME280;61348;53.392;-6.248;2024-03-08T00:22:41;100632.03;;;6.58;96.49
43707;BME280;61348;53.392;-6.248;2024-03-08T00:25:08;100627.34;;;6.59;96.62
43707;BME280;61348;53.392;-6.248;2024-03-08T00:27:37;100614.25;;;6.56;96.63
43707;BME280;61348;53.392;-6.248;2024-03-08T00:30:06;100615.06;;;6.56;96.50
43707;BME280;61348;53.392;-6.248;2024-03-08T00:32:34;100607.13;;;6.55;96.77
43707;BME280;61348;53.392;-6.248;2024-03-08T00:35:02;100609.03;;;6.54;96.37
43707;BME280;61348;53.392;-6.248;2024-03-08T00:37:32;100605.19;;;6.55;96.58
43707;BME280;61348;53.392;-6.248;2024-03-08T00:39:59;100604.69;;;6.53;96.49
43707;BME280;61348;53.392;-6.248;2024-03-08T00:42:26;100603.06;;;6.52;96.33
43707;BME280;61348;53.392;-6.248;2024-03-08T00:44:54;100601.94;;;6.53;96.28
43707;BME280;61348;53.392;-6.248;2024-03-08T00:47:21;100593.69;;;6.53;96.30
43707;BME280;61348;53.392;-6.248;2024-03-08T00:49:49;100596.44;;;6.53;96.39
43707;BME280;61348;53.392;-6.248;2024-03-08T00:52:16;100599.19;;;6.53;96.30
43707;BME280;61348;53.392;-6.248;2024-03-08T00:54:44;100590.13;;;6.53;96.35
43707;BME280;61348;53.392;-6.248;2024-03-08T00:57:12;100596.44;;;6.53;96.13
43707;BME280;61348;53.392;-6.248;2024-03-08T00:59:39;100586.56;;;6.52;96.03
43707;BME280;61348;53.392;-6.248;2024-03-08T01:02:07;100587.69;;;6.51;96.08
43707;BME280;61348;53.392;-6.248;2024-03-08T01:04:36;100588.19;;;6.53;96.03
43707;BME280;61348;53.392;-6.248;2024-03-08T01:07:03;100571.19;;;6.51;95.96
43707;BME280;61348;53.392;-6.248;2024-03-08T01:09:30;100572.81;;;6.52;96.07
43707;BME280;61348;53.392;-6.248;2024-03-08T01:11:59;100577.50;;;6.52;95.90
43707;BME280;61348;53.392;-6.248;2024-03-08T01:14:27;100577.50;;;6.52;95.99
43707;BME280;61348;53.392;-6.248;2024-03-08T01:16:55;100576.69;;;6.51;95.92
43707;BME280;61348;53.392;-6.248;2024-03-08T01:19:23;100571.84;;;6.48;96.28
43707;BME280;61348;53.392;-6.248;2024-03-08T01:21:51;100568.59;;;6.46;96.31
43707;BME280;61348;53.392;-6.248;2024-03-08T01:24:19;100570.88;;;6.44;96.55
43707;BME280;61348;53.392;-6.248;2024-03-08T01:26:46;100566.81;;;6.42;96.49
43707;BME280;61348;53.392;-6.248;2024-03-08T01:29:14;100568.75;;;6.41;96.54
43707;BME280;61348;53.392;-6.248;2024-03-08T01:31:42;100566.00;;;6.41;96.66
43707;BME280;61348;53.392;-6.248;2024-03-08T01:34:10;100558.09;;;6.40;96.70
43707;BME280;61348;53.392;-6.248;2024-03-08T01:36:37;100558.72;;;6.37;96.44
43707;BME280;61348;53.392;-6.248;2024-03-08T01:39:05;100561.81;;;6.35;96.53
43707;BME280;61348;53.392;-6.248;2024-03-08T01:41:35;100555.81;;;6.33;96.73
43707;BME280;61348;53.392;-6.248;2024-03-08T01:44:03;100559.38;;;6.34;96.45
43707;BME280;61348;53.392;-6.248;2024-03-08T01:46:31;100562.13;;;6.34;96.58
43707;BME280;61348;53.392;-6.248;2024-03-08T01:48:59;100557.09;;;6.36;96.50
43707;BME280;61348;53.392;-6.248;2024-03-08T01:51:29;100554.03;;;6.37;96.39
43707;BME280;61348;53.392;-6.248;2024-03-08T01:53:56;100551.78;;;6.39;96.45
43707;BME280;61348;53.392;-6.248;2024-03-08T01:56:27;100553.41;;;6.40;96.41
43707;BME280;61348;53.392;-6.248;2024-03-08T01:58:54;100547.91;;;6.40;96.41
43707;BME280;61348;53.392;-6.248;2024-03-08T02:01:22;100540.78;;;6.39;96.52
43707;BME280;61348;53.392;-6.248;2024-03-08T02:03:49;100535.63;;;6.38;96.40
43707;BME280;61348;53.392;-6.248;2024-03-08T02:06:17;100540.59;;;6.36;96.55
43707;BME280;61348;53.392;-6.248;2024-03-08T02:08:45;100535.44;;;6.34;96.61
43707;BME280;61348;53.392;-6.248;2024-03-08T02:11:14;100531.56;;;6.35;96.68
43707;BME280;61348;53.392;-6.248;2024-03-08T02:13:43;100530.75;;;6.35;96.63
43707;BME280;61348;53.392;-6.248;2024-03-08T02:16:10;100525.56;;;6.33;96.42
43707;BME280;61348;53.392;-6.248;2024-03-08T02:18:38;100511.81;;;6.33;96.44
43707;BME280;61348;53.392;-6.248;2024-03-08T02:21:07;100517.66;;;6.32;96.49
43707;BME280;61348;53.392;-6.248;2024-03-08T02:23:36;100509.41;;;6.32;96.52
43707;BME280;61348;53.392;-6.248;2024-03-08T02:26:04;100506.31;;;6.33;96.43
43707;BME280;61348;53.392;-6.248;2024-03-08T02:28:33;100504.19;;;6.30;96.47
43707;BME280;61348;53.392;-6.248;2024-03-08T02:31:01;100502.13;;;6.27;96.35
43707;BME280;61348;53.392;-6.248;2024-03-08T02:33:29;100500.97;;;6.28;96.29
43707;BME280;61348;53.392;-6.248;2024-03-08T02:35:56;100495.47;;;6.28;96.07
43707;BME280;61348;53.392;-6.248;2024-03-08T02:38:24;100500.97;;;6.28;96.21
43707;BME280;61348;53.392;-6.248;2024-03-08T02:40:53;100491.13;;;6.27;96.22
43707;BME280;61348;53.392;-6.248;2024-03-08T02:43:22;100485.13;;;6.25;96.30
43707;BME280;61348;53.392;-6.248;2024-03-08T02:45:50;100482.88;;;6.27;96.31
43707;BME280;61348;53.392;-6.248;2024-03-08T02:48:20;100480.44;;;6.26;96.10
43707;BME280;61348;53.392;-6.248;2024-03-08T02:50:49;100472.53;;;6.24;95.95
43707;BME280;61348;53.392;-6.248;2024-03-08T02:53:18;100463.47;;;6.24;96.16
43707;BME280;61348;53.392;-6.248;2024-03-08T02:55:46;100461.53;;;6.24;96.15
43707;BME280;61348;53.392;-6.248;2024-03-08T02:58:14;100457.63;;;6.25;96.02
43707;BME280;61348;53.392;-6.248;2024-03-08T03:00:42;100450.19;;;6.26;96.13
43707;BME280;61348;53.392;-6.248;2024-03-08T03:03:12;100446.63;;;6.25;96.00
43707;BME280;61348;53.392;-6.248;2024-03-08T03:05:39;100438.38;;;6.25;95.91
43707;BME280;61348;53.392;-6.248;2024-03-08T03:08:14;100434.03;;;6.24;96.05
43707;BME280;61348;53.392;-6.248;2024-03-08T03:10:42;100415.91;;;6.23;96.02
43707;BME280;61348;53.392;-6.248;2024-03-08T03:13:10;100419.81;;;6.22;95.81
43707;BME280;61348;53.392;-6.248;2024-03-08T03:15:37;100417.06;;;6.22;95.72
43707;BME280;61348;53.392;-6.248;2024-03-08T03:18:05;100407.50;;;6.20;95.69
43707;BME280;61348;53.392;-6.248;2024-03-08T03:20:35;100407.03;;;6.18;95.87
43707;BME280;61348;53.392;-6.248;2024-03-08T03:23:10;100411.72;;;6.17;95.79
43707;BME280;61348;53.392;-6.248;2024-03-08T03:25:42;100393.63;;;6.16;95.47
43707;BME280;61348;53.392;-6.248;2024-03-08T03:28:09;100388.94;;;6.17;95.75
43707;BME280;61348;53.392;-6.248;2024-03-08T03:30:38;100385.38;;;6.16;95.72
43707;BME280;61348;53.392;-6.248;2024-03-08T03:33:06;100388.13;;;6.16;95.57
43707;BME280;61348;53.392;-6.248;2024-03-08T03:35:35;100386.97;;;6.17;95.30
43707;BME280;61348;53.392;-6.248;2024-03-08T03:38:04;100386.50;;;6.15;95.52
43707;BME280;61348;53.392;-6.248;2024-03-08T03:40:39;100377.13;;;6.16;95.36
43707;BME280;61348;53.392;-6.248;2024-03-08T03:43:07;100384.91;;;6.14;95.29
43707;BME280;61348;53.392;-6.248;2024-03-08T03:45:39;100386.50;;;6.15;95.43
43707;BME280;61348;53.392;-6.248;2024-03-08T03:48:07;100367.59;;;6.13;95.23
43707;BME280;61348;53.392;-6.248;2024-03-08T03:50:38;100368.72;;;6.12;95.38
43707;BME280;61348;53.392;-6.248;2024-03-08T03:53:06;100372.28;;;6.13;95.25
43707;BME280;61348;53.392;-6.248;2024-03-08T03:55:38;100367.44;;;6.10;95.46
43707;BME280;61348;53.392;-6.248;2024-03-08T03:58:08;100368.41;;;6.05;95.26
43707;BME280;61348;53.392;-6.248;2024-03-08T04:00:38;100359.34;;;6.05;95.47
43707;BME280;61348;53.392;-6.248;2024-03-08T04:03:06;100362.44;;;6.03;95.45
43707;BME280;61348;53.392;-6.248;2024-03-08T04:05:34;100357.59;;;6.00;95.24
43707;BME280;61348;53.392;-6.248;2024-03-08T04:08:02;100345.78;;;6.00;95.37
43707;BME280;61348;53.392;-6.248;2024-03-08T04:10:30;100348.06;;;5.98;95.29
43707;BME280;61348;53.392;-6.248;2024-03-08T04:13:03;100344.78;;;5.96;95.60
43707;BME280;61348;53.392;-6.248;2024-03-08T04:15:31;100334.97;;;5.95;95.58
43707;BME280;61348;53.392;-6.248;2024-03-08T04:17:58;100337.72;;;5.95;95.49
43707;BME280;61348;53.392;-6.248;2024-03-08T04:20:27;100337.22;;;5.93;95.50
43707;BME280;61348;53.392;-6.248;2024-03-08T04:22:55;100342.72;;;5.93;95.47
43707;BME280;61348;53.392;-6.248;2024-03-08T04:25:22;100334.97;;;5.95;95.72
43707;BME280;61348;53.392;-6.248;2024-03-08T04:27:49;100337.22;;;5.93;95.39
43707;BME280;61348;53.392;-6.248;2024-03-08T04:30:17;100341.09;;;5.92;95.61
43707;BME280;61348;53.392;-6.248;2024-03-08T04:32:45;100333.66;;;5.92;95.64
43707;BME280;61348;53.392;-6.248;2024-03-08T04:35:12;100332.84;;;5.92;95.72
43707;BME280;61348;53.392;-6.248;2024-03-08T04:37:40;100332.84;;;5.92;95.58
43707;BME280;61348;53.392;-6.248;2024-03-08T04:40:08;100325.72;;;5.91;95.59
43707;BME280;61348;53.392;-6.248;2024-03-08T04:42:37;100323.63;;;5.88;95.67
43707;BME280;61348;53.392;-6.248;2024-03-08T04:45:05;100321.56;;;5.85;95.53
43707;BME280;61348;53.392;-6.248;2024-03-08T04:47:35;100315.06;;;5.81;95.60
43707;BME280;61348;53.392;-6.248;2024-03-08T04:50:04;100318.44;;;5.78;95.79
43707;BME280;61348;53.392;-6.248;2024-03-08T04:52:32;100315.69;;;5.78;95.72
43707;BME280;61348;53.392;-6.248;2024-03-08T04:54:59;100319.09;;;5.75;95.75
43707;BME280;61348;53.392;-6.248;2024-03-08T04:57:27;100303.75;;;5.74;95.69
43707;BME280;61348;53.392;-6.248;2024-03-08T04:59:55;100304.56;;;5.74;95.81
43707;BME280;61348;53.392;-6.248;2024-03-08T05:02:22;100296.31;;;5.74;95.76
43707;BME280;61348;53.392;-6.248;2024-03-08T05:04:50;100306.16;;;5.75;95.73
43707;BME280;61348;53.392;-6.248;2024-03-08T05:07:17;100298.75;;;5.76;95.76
43707;BME280;61348;53.392;-6.248;2024-03-08T05:09:47;100302.28;;;5.76;96.18
43707;BME280;61348;53.392;-6.248;2024-03-08T05:12:19;100298.25;;;5.74;96.10
43707;BME280;61348;53.392;-6.248;2024-03-08T05:14:46;100287.28;;;5.74;96.19
43707;BME280;61348;53.392;-6.248;2024-03-08T05:17:17;100294.38;;;5.75;96.07
43707;BME280;61348;53.392;-6.248;2024-03-08T05:19:44;100290.31;;;5.72;96.19
43707;BME280;61348;53.392;-6.248;2024-03-08T05:22:12;100294.22;;;5.71;96.09
43707;BME280;61348;53.392;-6.248;2024-03-08T05:24:40;100278.06;;;5.70;96.00
43707;BME280;61348;53.392;-6.248;2024-03-08T05:27:08;100281.94;;;5.69;96.10
43707;BME280;61348;53.392;-6.248;2024-03-08T05:29:35;100277.56;;;5.68;95.87
43707;BME280;61348;53.392;-6.248;2024-03-08T05:32:02;100266.41;;;5.64;96.08
43707;BME280;61348;53.392;-6.248;2024-03-08T05:34:31;100271.13;;;5.64;95.94
43707;BME280;61348;53.392;-6.248;2024-03-08T05:36:58;100276.63;;;5.64;95.98
43707;BME280;61348;53.392;-6.248;2024-03-08T05:39:26;100268.69;;;5.62;96.14
43707;BME280;61348;53.392;-6.248;2024-03-08T05:41:53;100264.66;;;5.60;96.19
43707;BME280;61348;53.392;-6.248;2024-03-08T05:44:22;100258.22;;;5.56;96.16
43707;BME280;61348;53.392;-6.248;2024-03-08T05:46:50;100260.44;;;5.53;96.28
43707;BME280;61348;53.392;-6.248;2024-03-08T05:49:18;100251.72;;;5.51;95.96
43707;BME280;61348;53.392;-6.248;2024-03-08T05:51:45;100244.47;;;5.47;96.28
43707;BME280;61348;53.392;-6.248;2024-03-08T05:54:14;100246.56;;;5.41;96.24
43707;BME280;61348;53.392;-6.248;2024-03-08T05:56:46;100249.16;;;5.38;96.18
43707;BME280;61348;53.392;-6.248;2024-03-08T05:59:15;100249.00;;;5.34;95.96
43707;BME280;61348;53.392;-6.248;2024-03-08T06:01:43;100240.59;;;5.31;96.63
43707;BME280;61348;53.392;-6.248;2024-03-08T06:04:10;100232.69;;;5.29;96.52
43707;BME280;61348;53.392;-6.248;2024-03-08T06:06:39;100236.09;;;5.26;96.40
43707;BME280;61348;53.392;-6.248;2024-03-08T06:09:07;100230.09;;;5.24;96.62
43707;BME280;61348;53.392;-6.248;2024-03-08T06:11:44;100233.97;;;5.23;96.77
43707;BME280;61348;53.392;-6.248;2024-03-08T06:14:12;100224.94;;;5.23;96.62
43707;BME280;61348;53.392;-6.248;2024-03-08T06:16:40;100220.56;;;5.22;96.49
43707;BME280;61348;53.392;-6.248;2024-03-08T06:19:07;100233.00;;;5.19;96.90
43707;BME280;61348;53.392;-6.248;2024-03-08T06:21:36;100214.94;;;5.18;96.79
43707;BME280;61348;53.392;-6.248;2024-03-08T06:24:03;100216.38;;;5.16;96.60
43707;BME280;61348;53.392;-6.248;2024-03-08T06:26:31;100217.03;;;5.13;96.77
43707;BME280;61348;53.392;-6.248;2024-03-08T06:29:01;100216.22;;;5.12;96.53
43707;BME280;61348;53.392;-6.248;2024-03-08T06:31:28;100209.91;;;5.12;96.68
43707;BME280;61348;53.392;-6.248;2024-03-08T06:33:55;100203.59;;;5.11;96.76
43707;BME280;61348;53.392;-6.248;2024-03-08T06:36:23;100211.06;;;5.11;96.68
43707;BME280;61348;53.392;-6.248;2024-03-08T06:38:51;100205.72;;;5.14;96.69
43707;BME280;61348;53.392;-6.248;2024-03-08T06:41:19;100207.34;;;5.15;96.90
43707;BME280;61348;53.392;-6.248;2024-03-08T06:43:48;100197.66;;;5.18;96.77
43707;BME280;61348;53.392;-6.248;2024-03-08T06:46:16;100205.56;;;5.19;96.78
43707;BME280;61348;53.392;-6.248;2024-03-08T06:48:44;100200.06;;;5.19;96.86
43707;BME280;61348;53.392;-6.248;2024-03-08T06:51:14;100202.81;;;5.19;97.01
43707;BME280;61348;53.392;-6.248;2024-03-08T06:53:42;100200.06;;;5.19;96.98
43707;BME280;61348;53.392;-6.248;2024-03-08T06:56:10;100196.84;;;5.17;97.28
43707;BME280;61348;53.392;-6.248;2024-03-08T06:58:37;100199.59;;;5.17;97.24
43707;BME280;61348;53.392;-6.248;2024-03-08T07:01:04;100194.44;;;5.16;97.09
43707;BME280;61348;53.392;-6.248;2024-03-08T07:03:35;100197.81;;;5.13;97.10
43707;BME280;61348;53.392;-6.248;2024-03-08T07:06:03;100191.84;;;5.11;97.19
43707;BME280;61348;53.392;-6.248;2024-03-08T07:08:32;100183.13;;;5.09;97.20
43707;BME280;61348;53.392;-6.248;2024-03-08T07:10:59;100178.44;;;5.09;97.12
43707;BME280;61348;53.392;-6.248;2024-03-08T07:13:27;100188.47;;;5.05;97.07
43707;BME280;61348;53.392;-6.248;2024-03-08T07:15:56;100194.41;;;5.07;97.25
43707;BME280;61348;53.392;-6.248;2024-03-08T07:18:23;100191.84;;;5.11;97.47
43707;BME280;61348;53.392;-6.248;2024-03-08T07:20:51;100195.06;;;5.13;97.21
43707;BME280;61348;53.392;-6.248;2024-03-08T07:23:19;100188.13;;;5.15;97.42
43707;BME280;61348;53.392;-6.248;2024-03-08T07:26:05;100181.03;;;5.14;97.34
43707;BME280;61348;53.392;-6.248;2024-03-08T07:28:32;100179.56;;;5.17;97.34
43707;BME280;61348;53.392;-6.248;2024-03-08T07:30:59;100180.38;;;5.17;97.34
43707;BME280;61348;53.392;-6.248;2024-03-08T07:33:39;100175.06;;;5.21;97.53
43707;BME280;61348;53.392;-6.248;2024-03-08T07:36:06;100175.19;;;5.24;97.67
43707;BME280;61348;53.392;-6.248;2024-03-08T07:38:34;100173.44;;;5.28;97.54
43707;BME280;61348;53.392;-6.248;2024-03-08T07:41:02;100184.41;;;5.37;97.48
43707;BME280;61348;53.392;-6.248;2024-03-08T07:43:32;100182.78;;;5.44;97.38
43707;BME280;61348;53.392;-6.248;2024-03-08T07:46:00;100184.88;;;5.47;97.34
43707;BME280;61348;53.392;-6.248;2024-03-08T07:48:27;100178.75;;;5.50;97.25
43707;BME280;61348;53.392;-6.248;2024-03-08T07:50:55;100179.22;;;5.52;97.12
43707;BME280;61348;53.392;-6.248;2024-03-08T07:53:23;100182.91;;;5.57;97.31
43707;BME280;61348;53.392;-6.248;2024-03-08T07:55:53;100186.00;;;5.64;97.23
43707;BME280;61348;53.392;-6.248;2024-03-08T07:58:21;100181.94;;;5.70;97.16
43707;BME280;61348;53.392;-6.248;2024-03-08T08:00:48;100176.75;;;5.77;97.20
43707;BME280;61348;53.392;-6.248;2024-03-08T08:03:16;100168.34;;;5.82;97.12
43707;BME280;61348;53.392;-6.248;2024-03-08T08:05:48;100171.56;;;5.84;97.16
43707;BME280;61348;53.392;-6.248;2024-03-08T08:08:16;100174.00;;;5.85;97.11
43707;BME280;61348;53.392;-6.248;2024-03-08T08:10:43;100175.78;;;5.90;97.02
43707;BME280;61348;53.392;-6.248;2024-03-08T08:13:11;100172.69;;;5.91;97.12
43707;BME280;61348;53.392;-6.248;2024-03-08T08:15:38;100172.22;;;5.98;97.10
43707;BME280;61348;53.392;-6.248;2024-03-08T08:18:06;100159.88;;;6.04;96.88
43707;BME280;61348;53.392;-6.248;2024-03-08T08:20:34;100151.94;;;6.11;97.01
43707;BME280;61348;53.392;-6.248;2024-03-08T08:23:01;100159.53;;;6.14;96.93
43707;BME280;61348;53.392;-6.248;2024-03-08T08:25:29;100151.59;;;6.12;97.00
43707;BME280;61348;53.392;-6.248;2024-03-08T08:27:56;100149.03;;;6.16;96.93
43707;BME280;61348;53.392;-6.248;2024-03-08T08:30:24;100148.47;;;6.23;96.85
43707;BME280;61348;53.392;-6.248;2024-03-08T08:32:51;100147.81;;;6.26;96.99
43707;BME280;61348;53.392;-6.248;2024-03-08T08:35:18;100140.19;;;6.31;97.13
43707;BME280;61348;53.392;-6.248;2024-03-08T08:37:47;100143.72;;;6.40;97.02
43707;BME280;61348;53.392;-6.248;2024-03-08T08:40:14;100142.88;;;6.48;96.69
43707;BME280;61348;53.392;-6.248;2024-03-08T08:42:43;100144.41;;;6.58;96.63
43707;BME280;61348;53.392;-6.248;2024-03-08T08:45:11;100139.78;;;6.70;96.95
43707;BME280;61348;53.392;-6.248;2024-03-08T08:47:46;100138.94;;;6.79;96.75
43707;BME280;61348;53.392;-6.248;2024-03-08T08:50:19;100134.03;;;6.84;96.54
43707;BME280;61348;53.392;-6.248;2024-03-08T08:52:54;100125.47;;;6.86;96.34
43707;BME280;61348;53.392;-6.248;2024-03-08T08:55:22;100135.66;;;6.85;96.23
43707;BME280;61348;53.392;-6.248;2024-03-08T08:57:53;100126.91;;;6.83;96.16
43707;BME280;61348;53.392;-6.248;2024-03-08T09:00:21;100127.72;;;6.84;95.97
43707;BME280;61348;53.392;-6.248;2024-03-08T09:02:51;100123.84;;;6.85;96.18
43707;BME280;61348;53.392;-6.248;2024-03-08T09:05:19;100105.50;;;6.89;96.33
43707;BME280;61348;53.392;-6.248;2024-03-08T09:07:48;100111.50;;;6.91;96.08
43707;BME280;61348;53.392;-6.248;2024-03-08T09:10:17;100095.00;;;6.91;96.05
43707;BME280;61348;53.392;-6.248;2024-03-08T09:12:46;100104.03;;;6.91;96.04
43707;BME280;61348;53.392;-6.248;2024-03-08T09:15:13;100098.22;;;6.93;95.98
43707;BME280;61348;53.392;-6.248;2024-03-08T09:17:41;100090.41;;;6.95;95.85
43707;BME280;61348;53.392;-6.248;2024-03-08T09:20:10;100099.41;;;7.04;95.93
43707;BME280;61348;53.392;-6.248;2024-03-08T09:22:39;100094.03;;;7.07;95.49
43707;BME280;61348;53.392;-6.248;2024-03-08T09:25:08;100095.03;;;7.03;95.41
43707;BME280;61348;53.392;-6.248;2024-03-08T09:27:37;100083.78;;;6.96;95.29
43707;BME280;61348;53.392;-6.248;2024-03-08T09:30:06;100101.63;;;6.90;95.19
43707;BME280;61348;53.392;-6.248;2024-03-08T09:32:35;100095.66;;;6.88;95.49
43707;BME280;61348;53.392;-6.248;2024-03-08T09:35:04;100079.97;;;6.88;95.31
43707;BME280;61348;53.392;-6.248;2024-03-08T09:37:35;100081.69;;;6.93;95.44
43707;BME280;61348;53.392;-6.248;2024-03-08T09:40:03;100076.34;;;6.96;95.07
43707;BME280;61348;53.392;-6.248;2024-03-08T09:42:37;100074.97;;;7.02;94.99
43707;BME280;61348;53.392;-6.248;2024-03-08T09:45:09;100064.34;;;7.13;94.76
43707;BME280;61348;53.392;-6.248;2024-03-08T09:47:44;100068.50;;;7.19;94.48
43707;BME280;61348;53.392;-6.248;2024-03-08T09:50:12;100068.22;;;7.32;94.39
43707;BME280;61348;53.392;-6.248;2024-03-08T09:52:49;100057.66;;;7.47;94.26
43707;BME280;61348;53.392;-6.248;2024-03-08T09:55:16;100054.38;;;7.53;94.01
43707;BME280;61348;53.392;-6.248;2024-03-08T09:57:51;100052.97;;;7.47;93.80
43707;BME280;61348;53.392;-6.248;2024-03-08T10:00:38;100051.59;;;7.41;93.96
43707;BME280;61348;53.392;-6.248;2024-03-08T10:03:06;100055.63;;;7.44;94.22
43707;BME280;61348;53.392;-6.248;2024-03-08T10:05:33;100041.03;;;7.43;94.00
43707;BME280;61348;53.392;-6.248;2024-03-08T10:08:01;100040.78;;;7.36;93.87
43707;BME280;61348;53.392;-6.248;2024-03-08T10:10:28;100044.13;;;7.42;94.05
43707;BME280;61348;53.392;-6.248;2024-03-08T10:12:56;100037.25;;;7.48;93.70
43707;BME280;61348;53.392;-6.248;2024-03-08T10:15:23;100030.47;;;7.57;93.83
43707;BME280;61348;53.392;-6.248;2024-03-08T10:17:51;100034.31;;;7.65;93.35
43707;BME280;61348;53.392;-6.248;2024-03-08T10:20:20;100038.78;;;7.69;93.49
43707;BME280;61348;53.392;-6.248;2024-03-08T10:22:48;100029.38;;;7.82;93.58
43707;BME280;61348;53.392;-6.248;2024-03-08T10:25:33;100024.56;;;7.91;93.28
43707;BME280;61348;53.392;-6.248;2024-03-08T10:28:04;100024.19;;;8.05;93.31
43707;BME280;61348;53.392;-6.248;2024-03-08T10:30:32;100017.19;;;8.08;93.08
43707;BME280;61348;53.392;-6.248;2024-03-08T10:32:59;100023.38;;;8.17;93.17
43707;BME280;61348;53.392;-6.248;2024-03-08T10:35:27;100015.09;;;8.29;92.94
43707;BME280;61348;53.392;-6.248;2024-03-08T10:37:56;100018.56;;;8.26;92.32
43707;BME280;61348;53.392;-6.248;2024-03-08T10:40:28;100008.00;;;8.28;92.47
43707;BME280;61348;53.392;-6.248;2024-03-08T10:42:57;100006.84;;;8.29;92.33
43707;BME280;61348;53.392;-6.248;2024-03-08T10:45:34;100010.75;;;8.28;92.10
43707;BME280;61348;53.392;-6.248;2024-03-08T10:50:47;100011.78;;;8.11;92.06
43707;BME280;61348;53.392;-6.248;2024-03-08T10:53:18;100009.84;;;8.12;92.00
43707;BME280;61348;53.392;-6.248;2024-03-08T10:55:49;100015.78;;;8.14;92.23
43707;BME280;61348;53.392;-6.248;2024-03-08T10:58:22;100009.84;;;8.12;91.68
43707;BME280;61348;53.392;-6.248;2024-03-08T11:00:51;100011.22;;;8.06;91.48
43707;BME280;61348;53.392;-6.248;2024-03-08T11:06:07;100004.78;;;7.89;91.30
43707;BME280;61348;53.392;-6.248;2024-03-08T11:08:36;100002.94;;;7.81;91.16
43707;BME280;61348;53.392;-6.248;2024-03-08T11:11:04;100003.41;;;7.71;91.32
43707;BME280;61348;53.392;-6.248;2024-03-08T11:13:39;99996.88;;;7.64;91.41
43707;BME280;61348;53.392;-6.248;2024-03-08T11:19:04;99996.06;;;7.51;91.20
43707;BME280;61348;53.392;-6.248;2024-03-08T11:21:33;99989.97;;;7.46;91.18
43707;BME280;61348;53.392;-6.248;2024-03-08T11:24:01;99989.97;;;7.46;91.18
43707;BME280;61348;53.392;-6.248;2024-03-08T11:26:30;99990.19;;;7.53;91.06
43707;BME280;61348;53.392;-6.248;2024-03-08T11:32:14;99984.34;;;7.66;90.83
43707;BME280;61348;53.392;-6.248;2024-03-08T11:34:44;99978.16;;;7.69;90.58
43707;BME280;61348;53.392;-6.248;2024-03-08T11:37:17;99970.13;;;7.64;90.34
43707;BME280;61348;53.392;-6.248;2024-03-08T11:39:49;99974.38;;;7.62;90.29
43707;BME280;61348;53.392;-6.248;2024-03-08T11:42:18;99974.94;;;7.55;90.16
43707;BME280;61348;53.392;-6.248;2024-03-08T11:44:46;99971.38;;;7.55;90.12
43707;BME280;61348;53.392;-6.248;2024-03-08T11:47:15;99966.44;;;7.60;90.14
43707;BME280;61348;53.392;-6.248;2024-03-08T11:49:45;99968.50;;;7.63;90.04
43707;BME280;61348;53.392;-6.248;2024-03-08T11:52:16;99963.00;;;7.63;90.08
43707;BME280;61348;53.392;-6.248;2024-03-08T11:54:51;99969.19;;;7.60;89.94
43707;BME280;61348;53.392;-6.248;2024-03-08T11:57:24;99963.03;;;7.51;89.62
43707;BME280;61348;53.392;-6.248;2024-03-08T11:59:55;99969.09;;;7.45;89.70
43707;BME280;61348;53.392;-6.248;2024-03-08T12:02:33;99970.13;;;7.40;89.79
43707;BME280;61348;53.392;-6.248;2024-03-08T12:05:05;99967.13;;;7.45;89.67
43707;BME280;61348;53.392;-6.248;2024-03-08T12:07:37;99963.69;;;7.48;89.70
43707;BME280;61348;53.392;-6.248;2024-03-08T12:10:21;99959.56;;;7.54;89.60
43707;BME280;61348;53.392;-6.248;2024-03-08T12:12:51;99959.00;;;7.61;89.50
43707;BME280;61348;53.392;-6.248;2024-03-08T12:15:19;99958.19;;;7.60;89.18
43707;BME280;61348;53.392;-6.248;2024-03-08T12:17:51;99947.75;;;7.54;89.22
43707;BME280;61348;53.392;-6.248;2024-03-08T12:20:28;99942.81;;;7.47;88.87
43707;BME280;61348;53.392;-6.248;2024-03-08T12:22:59;99951.53;;;7.49;89.12
43707;BME280;61348;53.392;-6.248;2024-03-08T12:25:30;99941.88;;;7.55;89.20
43707;BME280;61348;53.392;-6.248;2024-03-08T12:28:12;99940.88;;;7.60;89.07
43707;BME280;61348;53.392;-6.248;2024-03-08T12:30:50;99937.16;;;7.68;88.99
43707;BME280;61348;53.392;-6.248;2024-03-08T12:33:20;99941.22;;;7.70;88.64
43707;BME280;61348;53.392;-6.248;2024-03-08T12:35:52;99930.97;;;7.71;88.65
43707;BME280;61348;53.392;-6.248;2024-03-08T12:38:22;99921.94;;;7.70;88.64
43707;BME280;61348;53.392;-6.248;2024-03-08T12:40:59;99911.47;;;7.64;88.48
43707;BME280;61348;53.392;-6.248;2024-03-08T12:43:28;99912.53;;;7.59;88.28
43707;BME280;61348;53.392;-6.248;2024-03-08T12:45:59;99895.88;;;7.56;88.11
43707;BME280;61348;53.392;-6.248;2024-03-08T12:48:26;99909.28;;;7.57;88.06
43707;BME280;61348;53.392;-6.248;2024-03-08T12:50:54;99910.09;;;7.58;88.06
43707;BME280;61348;53.392;-6.248;2024-03-08T12:53:22;99900.81;;;7.62;87.98
43707;BME280;61348;53.392;-6.248;2024-03-08T12:55:51;99903.34;;;7.67;88.02
43707;BME280;61348;53.392;-6.248;2024-03-08T12:58:19;99907.69;;;7.68;87.75
43707;BME280;61348;53.392;-6.248;2024-03-08T13:00:47;99900.81;;;7.62;87.58
43707;BME280;61348;53.392;-6.248;2024-03-08T13:03:20;99896.44;;;7.61;87.56
43707;BME280;61348;53.392;-6.248;2024-03-08T13:05:50;99887.97;;;7.54;87.11
43707;BME280;61348;53.392;-6.248;2024-03-08T13:08:17;99891.41;;;7.51;87.05
43707;BME280;61348;53.392;-6.248;2024-03-08T13:10:45;99888.97;;;7.50;87.19
43707;BME280;61348;53.392;-6.248;2024-03-08T13:13:13;99885.91;;;7.51;87.15